createdAt,value
2023-03-28T00:00:35.564Z,1.40
2023-03-28T00:03:02.797Z,1.40
2023-03-28T00:05:31.376Z,1.20
2023-03-28T00:07:59.873Z,1.10
2023-03-28T00:10:28.005Z,1.10
2023-03-28T00:12:54.817Z,1.10
2023-03-28T00:15:21.676Z,1.10
2023-03-28T00:17:49.307Z,1.00
2023-03-28T00:20:17.624Z,1.00
2023-03-28T00:22:44.599Z,1.00
2023-03-28T00:25:11.574Z,1.10
2023-03-28T00:27:38.400Z,1.00
2023-03-28T00:30:06.193Z,1.10
2023-03-28T00:32:33.898Z,1.10
2023-03-28T00:35:00.689Z,1.10
2023-03-28T00:37:27.792Z,1.10
2023-03-28T00:39:54.607Z,1.00
2023-03-28T00:42:25.296Z,0.90
2023-03-28T00:44:54.250Z,0.80
2023-03-28T00:47:43.822Z,0.90
2023-03-28T00:50:36.872Z,0.80
2023-03-28T00:53:26.369Z,0.90
2023-03-28T00:56:00.166Z,0.80
2023-03-28T00:58:32.177Z,0.80
2023-03-28T01:00:59.539Z,0.90
2023-03-28T01:03:35.016Z,0.70
2023-03-28T01:06:04.702Z,0.70
2023-03-28T01:08:35.958Z,0.70
2023-03-28T01:11:03.387Z,0.70
2023-03-28T01:13:33.827Z,0.60
2023-03-28T01:16:03.583Z,0.60
2023-03-28T01:18:34.542Z,0.60
2023-03-28T01:21:32.088Z,0.60
2023-03-28T01:24:11.729Z,0.50
2023-03-28T01:27:01.731Z,0.40
2023-03-28T01:29:40.527Z,0.40
2023-03-28T01:32:29.225Z,0.50
2023-03-28T01:35:38.029Z,0.60
2023-03-28T01:38:37.598Z,0.60
2023-03-28T01:41:04.421Z,0.60
2023-03-28T01:44:09.029Z,0.60
2023-03-28T01:46:46.217Z,0.60
2023-03-28T01:49:34.079Z,0.50
2023-03-28T01:52:32.397Z,0.40
2023-03-28T01:55:18.663Z,0.30
2023-03-28T01:58:12.138Z,0.30
2023-03-28T02:00:46.005Z,0.30
2023-03-28T02:03:25.207Z,0.20
2023-03-28T02:05:55.553Z,0.30
2023-03-28T02:08:25.830Z,0.40
2023-03-28T02:10:55.597Z,0.30
2023-03-28T02:13:28.304Z,0.20
2023-03-28T02:15:59.343Z,0.10
2023-03-28T02:18:31.336Z,0.00
2023-03-28T02:21:03.796Z,0.00
2023-03-28T02:23:47.620Z,0.00
2023-03-28T02:26:14.837Z,-0.10
2023-03-28T02:28:43.982Z,-0.10
2023-03-28T02:31:11.855Z,0.00
2023-03-28T02:33:47.541Z,0.00
2023-03-28T02:36:26.931Z,0.10
2023-03-28T02:39:02.819Z,0.00
2023-03-28T02:41:44.594Z,-0.10
2023-03-28T02:44:27.084Z,-0.10
2023-03-28T02:47:21.965Z,-0.20
2023-03-28T02:50:03.248Z,-0.20
2023-03-28T02:52:37.447Z,-0.20
2023-03-28T02:55:20.380Z,-0.20
2023-03-28T02:58:22.844Z,-0.20
2023-03-28T03:00:50.257Z,-0.20
2023-03-28T03:03:18.142Z,-0.20
2023-03-28T03:05:45.027Z,-0.30
2023-03-28T03:08:11.942Z,-0.40
2023-03-28T03:10:38.831Z,-0.40
2023-03-28T03:13:05.704Z,-0.30
2023-03-28T03:15:35.726Z,-0.30
2023-03-28T03:18:03.366Z,-0.40
2023-03-28T03:20:33.901Z,-0.50
2023-03-28T03:23:01.717Z,-0.50
2023-03-28T03:25:31.340Z,-0.50
2023-03-28T03:27:58.297Z,-0.60
2023-03-28T03:30:25.296Z,-0.70
2023-03-28T03:32:52.250Z,-0.70
2023-03-28T03:35:20.227Z,-0.70
2023-03-28T03:37:47.371Z,-0.80
2023-03-28T03:40:14.698Z,-0.90
2023-03-28T03:42:41.587Z,-0.90
2023-03-28T03:45:09.771Z,-0.80
2023-03-28T03:47:36.805Z,-0.80
2023-03-28T03:50:04.167Z,-0.80
2023-03-28T03:52:31.017Z,-0.80
2023-03-28T03:54:57.838Z,-0.80
2023-03-28T03:57:24.671Z,-0.80
2023-03-28T03:59:52.247Z,-0.80
2023-03-28T04:02:19.330Z,-0.80
2023-03-28T04:04:47.827Z,-0.80
2023-03-28T04:07:15.829Z,-0.80
2023-03-28T04:09:42.719Z,-0.90
2023-03-28T04:12:12.155Z,-1.00
2023-03-28T04:14:38.939Z,-1.00
2023-03-28T04:17:06.682Z,-1.00
2023-03-28T04:19:33.530Z,-1.00
2023-03-28T04:22:00.351Z,-1.00
2023-03-28T04:24:27.275Z,-1.00
2023-03-28T04:26:56.165Z,-1.00
2023-03-28T04:29:30.506Z,-1.00
2023-03-28T04:32:00.536Z,-1.00
2023-03-28T04:34:30.530Z,-1.00
2023-03-28T04:37:02.039Z,-1.10
2023-03-28T04:39:35.706Z,-1.00
2023-03-28T04:42:05.339Z,-1.00
2023-03-28T04:44:32.640Z,-1.10
2023-03-28T04:47:00.158Z,-1.00
2023-03-28T04:49:27.143Z,-1.00
2023-03-28T04:51:54.024Z,-1.10
2023-03-28T04:54:21.231Z,-1.10
2023-03-28T04:56:48.365Z,-1.10
2023-03-28T04:59:16.746Z,-1.10
2023-03-28T05:01:49.368Z,-1.20
2023-03-28T05:04:22.042Z,-1.20
2023-03-28T05:06:50.212Z,-1.10
2023-03-28T05:09:17.655Z,-1.10
2023-03-28T05:11:45.521Z,-1.10
2023-03-28T05:14:12.478Z,-1.10
2023-03-28T05:16:39.321Z,-1.10
2023-03-28T05:19:06.651Z,-1.10
2023-03-28T05:21:33.580Z,-1.10
2023-03-28T05:24:00.465Z,-1.00
2023-03-28T05:26:28.100Z,-1.00
2023-03-28T05:28:56.662Z,-1.00
2023-03-28T05:31:26.030Z,-0.90
2023-03-28T05:33:53.051Z,-0.90
2023-03-28T05:36:20.596Z,-1.00
2023-03-28T05:38:47.865Z,-1.00
2023-03-28T05:41:14.755Z,-1.10
2023-03-28T05:43:41.752Z,-1.10
2023-03-28T05:46:08.733Z,-1.00
2023-03-28T05:48:36.959Z,-1.00
2023-03-28T05:51:04.750Z,-0.90
2023-03-28T05:53:31.629Z,-0.90
2023-03-28T05:55:58.482Z,-0.90
2023-03-28T05:58:25.495Z,-0.90
2023-03-28T06:00:52.436Z,-0.90
2023-03-28T06:03:19.979Z,-0.90
2023-03-28T06:05:47.128Z,-0.80
2023-03-28T06:08:13.921Z,-0.70
2023-03-28T06:10:40.934Z,-0.70
2023-03-28T06:13:07.847Z,-0.60
2023-03-28T06:15:34.725Z,-0.50
2023-03-28T06:18:01.665Z,-0.60
2023-03-28T06:20:28.636Z,-0.50
2023-03-28T06:22:55.480Z,-0.50
2023-03-28T06:25:22.337Z,-0.40
2023-03-28T06:27:49.724Z,-0.40
2023-03-28T06:30:16.662Z,-0.30
2023-03-28T06:32:43.628Z,-0.30
2023-03-28T06:35:10.728Z,-0.20
2023-03-28T06:37:37.586Z,-0.10
2023-03-28T06:40:04.797Z,-0.10
2023-03-28T06:42:31.677Z,0.00
2023-03-28T06:44:58.508Z,0.00
2023-03-28T06:47:25.603Z,0.10
2023-03-28T06:49:52.475Z,0.20
2023-03-28T06:52:19.645Z,0.20
2023-03-28T06:54:48.577Z,0.20
2023-03-28T06:57:16.506Z,0.30
2023-03-28T06:59:43.565Z,0.40
2023-03-28T07:02:11.451Z,0.40
2023-03-28T07:04:38.327Z,0.50
2023-03-28T07:07:05.929Z,0.50
2023-03-28T07:09:32.814Z,0.50
2023-03-28T07:11:59.620Z,0.70
2023-03-28T07:14:26.675Z,0.70
2023-03-28T07:16:53.671Z,0.80
2023-03-28T07:19:20.999Z,0.90
2023-03-28T07:21:47.991Z,1.00
2023-03-28T07:24:15.583Z,1.50
2023-03-28T07:26:42.383Z,2.70
2023-03-28T07:29:09.236Z,3.80
2023-03-28T07:31:36.120Z,4.50
2023-03-28T07:34:03.150Z,4.70
2023-03-28T07:36:30.463Z,5.00
2023-03-28T07:38:57.341Z,5.60
2023-03-28T07:41:24.186Z,6.40
2023-03-28T07:43:51.128Z,7.10
2023-03-28T07:46:21.099Z,7.60
2023-03-28T07:48:48.077Z,8.10
2023-03-28T07:51:15.766Z,8.40
2023-03-28T07:53:43.307Z,8.50
2023-03-28T07:56:11.948Z,8.80
2023-03-28T07:58:40.851Z,9.10
2023-03-28T08:01:10.975Z,9.40
2023-03-28T08:03:38.027Z,9.60
2023-03-28T08:06:17.051Z,9.70
2023-03-28T08:08:51.946Z,9.70
2023-03-28T08:11:18.852Z,9.70
2023-03-28T08:13:45.723Z,9.90
2023-03-28T08:16:12.731Z,10.00
2023-03-28T08:18:39.798Z,10.20
2023-03-28T08:21:08.083Z,10.20
2023-03-28T08:23:34.983Z,10.60
2023-03-28T08:26:06.050Z,10.80
2023-03-28T08:28:35.189Z,10.60
2023-03-28T08:31:03.468Z,10.70
2023-03-28T08:33:32.832Z,10.60
2023-03-28T08:35:59.935Z,10.50
2023-03-28T08:38:27.030Z,10.50
2023-03-28T08:41:17.693Z,10.60
2023-03-28T08:43:50.662Z,10.60
2023-03-28T08:46:22.055Z,10.70
2023-03-28T08:48:52.000Z,11.00
2023-03-28T08:51:40.492Z,11.40
2023-03-28T08:54:32.497Z,11.40
2023-03-28T08:57:04.104Z,11.50
2023-03-28T08:59:46.123Z,11.50
2023-03-28T09:02:32.065Z,11.50
2023-03-28T09:05:11.948Z,11.70
2023-03-28T09:07:56.545Z,11.90
2023-03-28T09:10:39.863Z,12.10
2023-03-28T09:13:11.291Z,12.30
2023-03-28T09:16:16.887Z,12.40
2023-03-28T09:19:06.295Z,12.10
2023-03-28T09:21:38.816Z,12.20
2023-03-28T09:24:38.539Z,12.30
2023-03-28T09:27:14.895Z,12.40
2023-03-28T09:29:45.163Z,12.20
2023-03-28T09:32:22.419Z,12.30
2023-03-28T09:34:51.396Z,12.50
2023-03-28T09:37:32.724Z,12.60
2023-03-28T09:40:12.526Z,12.40
2023-03-28T09:42:55.599Z,12.40
2023-03-28T09:45:51.696Z,12.60
2023-03-28T09:48:26.521Z,12.60
2023-03-28T09:50:53.567Z,12.80
2023-03-28T09:53:39.447Z,12.90
2023-03-28T09:56:21.714Z,12.80
2023-03-28T09:58:51.674Z,12.90
2023-03-28T10:01:36.740Z,13.00
2023-03-28T10:04:14.246Z,13.00
2023-03-28T10:06:42.224Z,13.20
2023-03-28T10:09:25.626Z,13.30
2023-03-28T10:11:59.509Z,13.10
2023-03-28T10:14:41.355Z,13.40
2023-03-28T10:17:28.168Z,13.10
2023-03-28T10:20:21.560Z,13.10
2023-03-28T10:22:52.112Z,13.20
2023-03-28T10:25:32.136Z,13.30
2023-03-28T10:28:00.617Z,13.20
2023-03-28T10:30:30.751Z,13.50
2023-03-28T10:33:23.243Z,13.40
2023-03-28T10:36:31.415Z,13.40
2023-03-28T10:38:59.432Z,13.40
2023-03-28T10:41:28.773Z,13.60
2023-03-28T10:43:57.231Z,13.80
2023-03-28T10:46:36.348Z,14.20
2023-03-28T10:49:14.093Z,14.30
2023-03-28T10:51:42.640Z,14.30
2023-03-28T10:54:18.661Z,14.00
2023-03-28T10:57:11.928Z,13.30
2023-03-28T10:59:47.176Z,12.60
2023-03-28T11:02:23.029Z,12.90
2023-03-28T11:04:52.726Z,13.00
2023-03-28T11:07:43.209Z,12.30
2023-03-28T11:10:29.171Z,12.10
2023-03-28T11:13:30.648Z,11.90
2023-03-28T11:16:27.609Z,11.60
2023-03-28T11:19:03.088Z,11.20
2023-03-28T11:21:47.197Z,11.00
2023-03-28T11:24:48.145Z,11.10
2023-03-28T11:27:26.575Z,11.30
2023-03-28T11:29:55.345Z,11.00
2023-03-28T11:32:30.406Z,10.70
2023-03-28T11:35:28.704Z,10.60
2023-03-28T11:38:02.578Z,10.50
2023-03-28T11:40:46.582Z,10.30
2023-03-28T11:43:16.836Z,10.00
2023-03-28T11:45:53.256Z,10.40
2023-03-28T11:48:51.751Z,10.60
2023-03-28T11:51:25.489Z,10.50
2023-03-28T11:54:23.188Z,10.20
2023-03-28T11:56:58.645Z,9.90
2023-03-28T11:59:43.257Z,10.00
2023-03-28T12:02:42.320Z,10.20
2023-03-28T12:05:19.117Z,10.30
2023-03-28T12:07:57.427Z,10.30
2023-03-28T12:10:28.262Z,10.30
2023-03-28T12:12:59.545Z,10.40
2023-03-28T12:16:14.023Z,10.40
2023-03-28T12:18:50.841Z,11.00
2023-03-28T12:21:35.688Z,11.50
2023-03-28T12:24:23.135Z,11.60
2023-03-28T12:27:12.836Z,11.40
2023-03-28T12:29:49.011Z,11.20
2023-03-28T12:32:38.312Z,10.90
2023-03-28T12:35:23.545Z,10.60
2023-03-28T12:38:14.273Z,10.30
2023-03-28T12:40:53.356Z,10.00
2023-03-28T12:43:26.629Z,9.80
2023-03-28T12:46:00.848Z,9.80
2023-03-28T12:48:46.254Z,9.60
2023-03-28T12:51:19.859Z,9.50
2023-03-28T12:54:01.296Z,9.30
2023-03-28T12:56:28.275Z,9.20
2023-03-28T12:58:55.305Z,9.10
2023-03-28T13:01:46.869Z,9.00
2023-03-28T13:04:35.958Z,8.60
2023-03-28T13:07:28.301Z,8.30
2023-03-28T13:10:20.266Z,8.10
2023-03-28T13:13:14.537Z,7.90
2023-03-28T13:16:01.551Z,7.90
2023-03-28T13:18:31.787Z,7.90
2023-03-28T13:21:00.602Z,7.80
2023-03-28T13:23:33.746Z,7.90
2023-03-28T13:26:03.700Z,8.00
2023-03-28T13:28:50.806Z,8.10
2023-03-28T13:31:26.175Z,7.90
2023-03-28T13:34:01.784Z,7.80
2023-03-28T13:36:32.429Z,7.80
2023-03-28T13:39:11.184Z,7.90
2023-03-28T13:41:41.037Z,8.00
2023-03-28T13:44:18.804Z,8.20
2023-03-28T13:46:50.483Z,8.20
2023-03-28T13:49:28.176Z,8.20
2023-03-28T13:52:18.453Z,8.20
2023-03-28T13:54:46.080Z,8.10
2023-03-28T13:57:17.664Z,8.20
2023-03-28T13:59:54.395Z,8.00
2023-03-28T14:02:32.479Z,8.00
2023-03-28T14:05:30.501Z,8.00
2023-03-28T14:08:25.590Z,8.10
2023-03-28T14:10:52.955Z,8.20
2023-03-28T14:13:30.478Z,8.30
2023-03-28T14:15:57.572Z,8.20
2023-03-28T14:18:35.356Z,8.30
2023-03-28T14:21:03.506Z,8.40
2023-03-28T14:23:34.328Z,8.40
2023-03-28T14:26:23.588Z,8.40
2023-03-28T14:28:51.921Z,8.60
2023-03-28T14:31:29.601Z,8.70
2023-03-28T14:33:58.648Z,8.80
2023-03-28T14:36:31.029Z,8.90
2023-03-28T14:39:13.379Z,8.80
2023-03-28T14:41:42.745Z,8.70
2023-03-28T14:44:09.589Z,8.80
2023-03-28T14:46:36.736Z,8.70
2023-03-28T14:49:06.312Z,8.70
2023-03-28T14:51:53.255Z,8.70
2023-03-28T14:54:25.403Z,8.60
2023-03-28T14:56:52.829Z,8.60
2023-03-28T14:59:20.189Z,8.70
2023-03-28T15:01:49.944Z,8.70
2023-03-28T15:04:21.809Z,8.80
2023-03-28T15:06:56.317Z,8.80
2023-03-28T15:09:31.864Z,8.80
2023-03-28T15:12:07.688Z,8.90
2023-03-28T15:14:46.556Z,8.80
2023-03-28T15:17:19.778Z,8.90
2023-03-28T15:19:52.709Z,8.90
2023-03-28T15:22:27.786Z,8.90
2023-03-28T15:24:56.877Z,8.90
2023-03-28T15:27:28.714Z,8.80
2023-03-28T15:29:56.009Z,8.80
2023-03-28T15:32:23.248Z,8.80
2023-03-28T15:35:05.605Z,8.70
2023-03-28T15:37:43.910Z,8.60
2023-03-28T15:40:23.553Z,8.60
2023-03-28T15:42:51.274Z,8.60
2023-03-28T15:45:37.304Z,8.70
2023-03-28T15:48:04.512Z,8.90
2023-03-28T15:50:35.534Z,8.90
2023-03-28T15:53:14.871Z,8.80
2023-03-28T15:55:43.509Z,8.80
2023-03-28T15:58:16.132Z,8.70
2023-03-28T16:00:45.165Z,8.70
2023-03-28T16:03:25.785Z,8.60
2023-03-28T16:06:07.675Z,8.60
2023-03-28T16:08:41.130Z,8.60
2023-03-28T16:11:28.281Z,8.60
2023-03-28T16:13:55.260Z,8.50
2023-03-28T16:16:26.256Z,8.50
2023-03-28T16:18:53.236Z,8.50
2023-03-28T16:21:20.145Z,8.40
2023-03-28T16:23:47.340Z,8.40
2023-03-28T16:26:15.064Z,8.50
2023-03-28T16:28:42.275Z,8.50
2023-03-28T16:31:14.670Z,8.40
2023-03-28T16:33:41.658Z,8.30
2023-03-28T16:36:10.401Z,8.20
2023-03-28T16:38:37.228Z,8.20
2023-03-28T16:41:04.252Z,8.20
2023-03-28T16:43:31.119Z,8.20
2023-03-28T16:45:58.006Z,8.10
2023-03-28T16:48:24.984Z,8.20
2023-03-28T16:50:56.052Z,8.20
2023-03-28T16:53:23.004Z,8.20
2023-03-28T16:55:50.747Z,8.20
2023-03-28T16:58:17.718Z,8.20
2023-03-28T17:00:44.607Z,8.10
2023-03-28T17:03:11.788Z,8.00
2023-03-28T17:05:39.504Z,7.90
2023-03-28T17:08:06.805Z,7.90
2023-03-28T17:10:34.534Z,7.80
2023-03-28T17:13:02.615Z,7.80
2023-03-28T17:15:32.007Z,7.80
2023-03-28T17:17:59.310Z,7.80
2023-03-28T17:20:26.683Z,7.70
2023-03-28T17:22:53.796Z,7.60
2023-03-28T17:25:20.935Z,7.60
2023-03-28T17:27:47.816Z,7.50
2023-03-28T17:30:15.084Z,7.50
2023-03-28T17:32:42.279Z,7.50
2023-03-28T17:35:09.557Z,7.40
2023-03-28T17:37:38.567Z,7.30
2023-03-28T17:40:06.888Z,7.10
2023-03-28T17:42:33.969Z,7.10
2023-03-28T17:45:01.180Z,7.10
2023-03-28T17:47:28.148Z,7.10
2023-03-28T17:49:57.034Z,7.00
2023-03-28T17:52:24.443Z,7.10
2023-03-28T17:54:51.587Z,7.00
2023-03-28T17:57:18.656Z,7.00
2023-03-28T17:59:45.679Z,6.90
2023-03-28T18:02:12.588Z,6.90
2023-03-28T18:04:39.500Z,6.80
2023-03-28T18:07:16.119Z,6.90
2023-03-28T18:09:44.484Z,6.90
2023-03-28T18:12:11.680Z,6.80
2023-03-28T18:14:39.249Z,6.70
2023-03-28T18:17:06.981Z,6.70
2023-03-28T18:19:33.859Z,6.60
2023-03-28T18:22:00.809Z,6.60
2023-03-28T18:24:28.185Z,6.60
2023-03-28T18:26:56.038Z,6.60
2023-03-28T18:29:24.061Z,6.50
2023-03-28T18:31:52.036Z,6.50
2023-03-28T18:34:19.963Z,6.40
2023-03-28T18:36:48.142Z,6.40
2023-03-28T18:39:15.264Z,6.40
2023-03-28T18:41:42.296Z,6.40
2023-03-28T18:44:10.935Z,6.30
2023-03-28T18:46:37.855Z,6.30
2023-03-28T18:49:04.844Z,6.30
2023-03-28T18:51:31.918Z,6.20
2023-03-28T18:54:00.236Z,6.10
2023-03-28T18:56:27.200Z,6.10
2023-03-28T18:58:54.037Z,5.90
2023-03-28T19:01:23.281Z,6.00
2023-03-28T19:03:50.606Z,6.00
2023-03-28T19:06:17.793Z,6.00
2023-03-28T19:08:44.955Z,6.00
2023-03-28T19:11:19.652Z,6.10
2023-03-28T19:13:46.919Z,6.00
2023-03-28T19:16:15.758Z,6.00
2023-03-28T19:18:44.868Z,6.00
2023-03-28T19:21:12.888Z,6.00
2023-03-28T19:23:40.666Z,5.90
2023-03-28T19:26:09.016Z,6.00
2023-03-28T19:28:37.092Z,5.80
2023-03-28T19:31:06.479Z,5.90
2023-03-28T19:33:33.858Z,5.80
2023-03-28T19:36:01.064Z,5.90
2023-03-28T19:38:30.753Z,5.80
2023-03-28T19:40:59.279Z,5.70
2023-03-28T19:43:26.592Z,5.70
2023-03-28T19:45:53.765Z,5.70
2023-03-28T19:48:21.062Z,5.70
2023-03-28T19:50:51.090Z,5.60
2023-03-28T19:53:18.191Z,5.60
2023-03-28T19:55:54.241Z,5.60
2023-03-28T19:58:21.867Z,5.60
2023-03-28T20:00:49.046Z,5.60
2023-03-28T20:03:17.311Z,5.60
2023-03-28T20:05:45.958Z,5.60
2023-03-28T20:08:13.332Z,5.60
2023-03-28T20:10:46.798Z,5.60
2023-03-28T20:13:14.443Z,5.60
2023-03-28T20:15:43.027Z,5.70
2023-03-28T20:18:14.401Z,5.70
2023-03-28T20:20:42.706Z,5.70
2023-03-28T20:23:11.756Z,5.70
2023-03-28T20:25:38.694Z,5.70
2023-03-28T20:28:05.882Z,5.70
2023-03-28T20:30:32.958Z,5.70
2023-03-28T20:33:00.915Z,5.70
2023-03-28T20:35:28.296Z,5.80
2023-03-28T20:37:55.194Z,5.70
2023-03-28T20:40:23.329Z,5.70
2023-03-28T20:42:50.891Z,5.60
2023-03-28T20:45:24.486Z,5.70
2023-03-28T20:47:59.054Z,5.80
2023-03-28T20:50:34.050Z,5.80
2023-03-28T20:53:02.197Z,5.70
2023-03-28T20:55:29.696Z,5.80
2023-03-28T20:57:56.801Z,5.90
2023-03-28T21:00:24.857Z,5.90
2023-03-28T21:02:55.293Z,5.90
2023-03-28T21:05:27.391Z,5.90
2023-03-28T21:07:55.440Z,5.90
2023-03-28T21:10:23.136Z,5.90
2023-03-28T21:12:50.961Z,6.00
2023-03-28T21:15:18.189Z,5.80
2023-03-28T21:17:49.108Z,5.80
2023-03-28T21:20:17.068Z,5.90
2023-03-28T21:22:44.198Z,5.80
2023-03-28T21:25:11.944Z,5.80
2023-03-28T21:27:38.950Z,5.90
2023-03-28T21:30:08.202Z,5.80
2023-03-28T21:32:41.739Z,5.80
2023-03-28T21:35:09.557Z,5.80
2023-03-28T21:37:36.571Z,5.90
2023-03-28T21:40:07.046Z,5.80
2023-03-28T21:42:35.014Z,5.80
2023-03-28T21:45:02.077Z,5.80
2023-03-28T21:47:29.007Z,5.80
2023-03-28T21:49:55.915Z,5.80
2023-03-28T21:52:22.781Z,5.80
2023-03-28T21:54:49.593Z,5.70
2023-03-28T21:57:16.665Z,5.70
2023-03-28T21:59:45.363Z,5.70
2023-03-28T22:02:13.273Z,5.80
2023-03-28T22:04:41.070Z,5.90
2023-03-28T22:07:08.001Z,5.90
2023-03-28T22:09:35.898Z,6.00
2023-03-28T22:12:05.521Z,5.90
2023-03-28T22:14:33.824Z,5.90
2023-03-28T22:17:00.668Z,6.00
2023-03-28T22:19:29.967Z,5.90
2023-03-28T22:22:00.854Z,5.80
2023-03-28T22:24:28.148Z,5.70
2023-03-28T22:26:55.629Z,5.70
2023-03-28T22:29:22.440Z,5.80
2023-03-28T22:31:49.397Z,5.80
2023-03-28T22:34:17.655Z,5.80
2023-03-28T22:36:44.492Z,5.80
2023-03-28T22:39:11.291Z,5.80
2023-03-28T22:41:38.110Z,5.80
2023-03-28T22:44:05.145Z,5.70
2023-03-28T22:46:32.169Z,5.70
2023-03-28T22:48:59.098Z,5.70
2023-03-28T22:51:27.743Z,5.70
2023-03-28T22:53:56.188Z,5.70
2023-03-28T22:56:24.374Z,5.60
2023-03-28T22:58:53.580Z,5.60
2023-03-28T23:01:23.086Z,5.60
2023-03-28T23:03:50.085Z,5.60
2023-03-28T23:06:17.608Z,5.60
2023-03-28T23:08:44.419Z,5.70
2023-03-28T23:11:11.230Z,5.70
2023-03-28T23:13:38.042Z,5.70
2023-03-28T23:16:05.804Z,5.80
2023-03-28T23:18:32.700Z,5.70
2023-03-28T23:20:59.748Z,5.70
2023-03-28T23:23:27.236Z,5.70
2023-03-28T23:25:54.093Z,5.60
2023-03-28T23:28:20.990Z,5.60
2023-03-28T23:30:47.842Z,5.60
2023-03-28T23:33:14.900Z,5.50
2023-03-28T23:35:43.325Z,5.60
2023-03-28T23:38:14.129Z,5.60
2023-03-28T23:40:41.435Z,5.50
2023-03-28T23:43:08.868Z,5.50
2023-03-28T23:45:35.948Z,5.50
2023-03-28T23:48:03.120Z,5.60
2023-03-28T23:50:30.564Z,5.60
2023-03-28T23:52:57.378Z,5.50
2023-03-28T23:55:25.845Z,5.50
2023-03-28T23:57:56.744Z,5.50
